createdAt,value
2023-03-28T00:01:02.069Z,98929.09
2023-03-28T00:03:29.919Z,98921.53
2023-03-28T00:06:02.910Z,98924.94
2023-03-28T00:08:30.881Z,98920.69
2023-03-28T00:11:08.043Z,98922.56
2023-03-28T00:13:35.535Z,98931.00
2023-03-28T00:16:10.352Z,98933.44
2023-03-28T00:18:39.514Z,98948.94
2023-03-28T00:21:23.906Z,98938.72
2023-03-28T00:23:53.496Z,98948.13
2023-03-28T00:26:22.402Z,98936.00
2023-03-28T00:28:49.138Z,98937.84
2023-03-28T00:31:15.985Z,98944.41
2023-03-28T00:33:43.989Z,98947.00
2023-03-28T00:36:10.735Z,98940.00
2023-03-28T00:38:38.842Z,98941.00
2023-03-28T00:41:06.042Z,98941.19
2023-03-28T00:43:44.359Z,98933.53
2023-03-28T00:46:18.790Z,98938.44
2023-03-28T00:48:51.775Z,98951.50
2023-03-28T00:51:22.991Z,98943.69
2023-03-28T00:53:52.741Z,98947.09
2023-03-28T00:56:23.528Z,98952.41
2023-03-28T00:58:51.626Z,98945.25
2023-03-28T01:01:20.248Z,98953.03
2023-03-28T01:03:56.548Z,98949.44
2023-03-28T01:06:25.456Z,98952.13
2023-03-28T01:08:52.831Z,98950.34
2023-03-28T01:11:19.989Z,98952.22
2023-03-28T01:13:51.714Z,98945.38
2023-03-28T01:16:21.183Z,98953.91
2023-03-28T01:18:52.491Z,98953.06
2023-03-28T01:21:36.760Z,98949.75
2023-03-28T01:24:11.741Z,98952.38
2023-03-28T01:27:08.624Z,98949.97
2023-03-28T01:30:01.453Z,98959.50
2023-03-28T01:32:56.964Z,98962.91
2023-03-28T01:36:01.427Z,98957.75
2023-03-28T01:38:43.951Z,98958.84
2023-03-28T01:41:24.016Z,98957.91
2023-03-28T01:44:06.405Z,98962.25
2023-03-28T01:46:39.412Z,98961.50
2023-03-28T01:49:13.996Z,98974.44
2023-03-28T01:52:12.428Z,98972.78
2023-03-28T01:54:58.929Z,98973.59
2023-03-28T01:57:41.552Z,98983.19
2023-03-28T02:00:12.856Z,98975.38
2023-03-28T02:03:03.636Z,98987.38
2023-03-28T02:05:33.220Z,98986.72
2023-03-28T02:08:02.955Z,98989.22
2023-03-28T02:10:32.876Z,98991.00
2023-03-28T02:13:03.756Z,98986.00
2023-03-28T02:15:32.721Z,98985.69
2023-03-28T02:18:04.598Z,98989.00
2023-03-28T02:20:35.564Z,98986.44
2023-03-28T02:23:08.500Z,98979.50
2023-03-28T02:25:35.263Z,98983.81
2023-03-28T02:28:05.691Z,98973.22
2023-03-28T02:30:32.869Z,98987.97
2023-03-28T02:33:01.617Z,98975.34
2023-03-28T02:35:40.187Z,98979.69
2023-03-28T02:38:21.215Z,98977.06
2023-03-28T02:41:14.011Z,98976.19
2023-03-28T02:43:53.529Z,98987.41
2023-03-28T02:46:32.046Z,98983.25
2023-03-28T02:49:01.625Z,98985.03
2023-03-28T02:51:42.825Z,98989.38
2023-03-28T02:54:25.404Z,98996.09
2023-03-28T02:57:10.596Z,98995.22
2023-03-28T02:59:44.435Z,98993.47
2023-03-28T03:02:16.896Z,99001.91
2023-03-28T03:04:44.604Z,98995.66
2023-03-28T03:07:11.349Z,99007.69
2023-03-28T03:09:37.989Z,99000.84
2023-03-28T03:12:04.893Z,99000.91
2023-03-28T03:14:31.578Z,99006.28
2023-03-28T03:16:58.319Z,99002.84
2023-03-28T03:19:24.992Z,99003.81
2023-03-28T03:21:51.852Z,99004.03
2023-03-28T03:24:18.524Z,99003.97
2023-03-28T03:26:45.552Z,99001.56
2023-03-28T03:29:12.296Z,99004.19
2023-03-28T03:31:38.975Z,98999.88
2023-03-28T03:34:06.105Z,99006.09
2023-03-28T03:36:32.961Z,99008.50
2023-03-28T03:39:00.136Z,99007.84
2023-03-28T03:41:26.857Z,99009.47
2023-03-28T03:43:53.555Z,99012.97
2023-03-28T03:46:20.381Z,99015.53
2023-03-28T03:48:50.025Z,99016.28
2023-03-28T03:51:17.763Z,99019.75
2023-03-28T03:53:45.147Z,99018.97
2023-03-28T03:56:11.923Z,99014.56
2023-03-28T03:58:38.774Z,99024.16
2023-03-28T04:01:05.706Z,99023.44
2023-03-28T04:03:34.094Z,99025.06
2023-03-28T04:06:02.382Z,99026.81
2023-03-28T04:08:29.275Z,99026.94
2023-03-28T04:10:56.000Z,99034.59
2023-03-28T04:13:22.664Z,99038.13
2023-03-28T04:15:49.360Z,99040.78
2023-03-28T04:18:17.878Z,99048.56
2023-03-28T04:20:47.258Z,99041.63
2023-03-28T04:23:13.939Z,99036.19
2023-03-28T04:25:43.495Z,99046.63
2023-03-28T04:28:10.521Z,99051.81
2023-03-28T04:30:38.455Z,99050.25
2023-03-28T04:33:05.219Z,99048.56
2023-03-28T04:35:35.697Z,99054.41
2023-03-28T04:38:03.025Z,99069.03
2023-03-28T04:40:29.889Z,99051.66
2023-03-28T04:42:56.496Z,99065.59
2023-03-28T04:45:23.797Z,99065.78
2023-03-28T04:47:50.715Z,99065.59
2023-03-28T04:50:17.622Z,99061.19
2023-03-28T04:52:44.460Z,99075.63
2023-03-28T04:55:11.125Z,99078.25
2023-03-28T04:57:38.444Z,99077.53
2023-03-28T05:00:17.371Z,99078.41
2023-03-28T05:02:44.258Z,99075.81
2023-03-28T05:05:11.096Z,99091.38
2023-03-28T05:07:37.898Z,99089.63
2023-03-28T05:10:06.279Z,99089.44
2023-03-28T05:12:32.952Z,99082.41
2023-03-28T05:14:59.580Z,99094.25
2023-03-28T05:17:26.566Z,99091.66
2023-03-28T05:19:53.372Z,99099.44
2023-03-28T05:22:20.111Z,99101.03
2023-03-28T05:24:46.984Z,99104.66
2023-03-28T05:27:13.804Z,99116.94
2023-03-28T05:29:40.470Z,99109.09
2023-03-28T05:32:07.331Z,99115.88
2023-03-28T05:34:34.590Z,99129.03
2023-03-28T05:37:02.029Z,99122.50
2023-03-28T05:39:29.222Z,99119.34
2023-03-28T05:41:55.808Z,99121.25
2023-03-28T05:44:22.633Z,99122.16
2023-03-28T05:46:49.240Z,99129.28
2023-03-28T05:49:15.810Z,99135.44
2023-03-28T05:51:42.520Z,99134.53
2023-03-28T05:54:09.260Z,99140.75
2023-03-28T05:56:36.632Z,99142.63
2023-03-28T05:59:03.660Z,99145.94
2023-03-28T06:01:31.572Z,99147.75
2023-03-28T06:03:58.716Z,99152.88
2023-03-28T06:06:25.548Z,99155.63
2023-03-28T06:08:52.381Z,99161.59
2023-03-28T06:11:19.237Z,99172.03
2023-03-28T06:13:46.107Z,99175.25
2023-03-28T06:16:12.905Z,99178.66
2023-03-28T06:18:39.586Z,99178.78
2023-03-28T06:21:06.475Z,99189.31
2023-03-28T06:23:33.145Z,99188.97
2023-03-28T06:25:59.943Z,99183.97
2023-03-28T06:28:26.794Z,99186.72
2023-03-28T06:30:53.728Z,99180.78
2023-03-28T06:33:20.733Z,99189.50
2023-03-28T06:35:47.633Z,99181.22
2023-03-28T06:38:14.354Z,99187.66
2023-03-28T06:40:41.470Z,99196.59
2023-03-28T06:43:08.201Z,99190.22
2023-03-28T06:45:35.052Z,99193.78
2023-03-28T06:48:01.746Z,99190.19
2023-03-28T06:50:28.619Z,99202.22
2023-03-28T06:52:55.210Z,99197.72
2023-03-28T06:55:23.092Z,99208.16
2023-03-28T06:57:49.808Z,99215.22
2023-03-28T07:00:16.896Z,99219.41
2023-03-28T07:02:43.749Z,99228.78
2023-03-28T07:05:11.763Z,99221.28
2023-03-28T07:07:38.372Z,99237.50
2023-03-28T07:10:05.831Z,99243.59
2023-03-28T07:12:32.443Z,99240.84
2023-03-28T07:14:59.175Z,99240.06
2023-03-28T07:17:26.032Z,99246.97
2023-03-28T07:19:54.511Z,99240.78
2023-03-28T07:22:21.271Z,99243.28
2023-03-28T07:24:47.992Z,99243.09
2023-03-28T07:27:16.647Z,99248.91
2023-03-28T07:29:44.118Z,99249.66
2023-03-28T07:32:11.409Z,99254.09
2023-03-28T07:34:38.143Z,99257.78
2023-03-28T07:37:05.572Z,99278.44
2023-03-28T07:39:32.683Z,99272.50
2023-03-28T07:42:01.463Z,99278.34
2023-03-28T07:44:28.070Z,99285.81
2023-03-28T07:46:55.057Z,99288.97
2023-03-28T07:49:21.795Z,99290.84
2023-03-28T07:51:48.606Z,99287.75
2023-03-28T07:54:17.959Z,99297.28
2023-03-28T07:56:48.616Z,99294.03
2023-03-28T07:59:15.433Z,99298.03
2023-03-28T08:01:43.531Z,99304.97
2023-03-28T08:04:11.870Z,99306.41
2023-03-28T08:06:39.759Z,99312.91
2023-03-28T08:09:13.599Z,99317.94
2023-03-28T08:11:41.937Z,99318.78
2023-03-28T08:14:12.239Z,99320.50
2023-03-28T08:16:40.042Z,99328.38
2023-03-28T08:19:11.425Z,99326.97
2023-03-28T08:21:39.299Z,99326.78
2023-03-28T08:24:07.910Z,99323.31
2023-03-28T08:26:35.086Z,99319.72
2023-03-28T08:29:02.494Z,99327.03
2023-03-28T08:31:29.720Z,99317.31
2023-03-28T08:33:57.470Z,99319.59
2023-03-28T08:36:27.438Z,99323.72
2023-03-28T08:38:57.506Z,99310.06
2023-03-28T08:41:52.476Z,99321.66
2023-03-28T08:44:27.835Z,99314.56
2023-03-28T08:47:00.272Z,99313.13
2023-03-28T08:49:27.530Z,99311.00
2023-03-28T08:52:01.000Z,99316.13
2023-03-28T08:54:34.468Z,99316.91
2023-03-28T08:57:04.442Z,99323.91
2023-03-28T09:00:15.743Z,99317.72
2023-03-28T09:02:44.282Z,99325.09
2023-03-28T09:05:25.542Z,99334.28
2023-03-28T09:08:01.162Z,99333.97
2023-03-28T09:10:39.888Z,99334.81
2023-03-28T09:13:24.851Z,99328.81
2023-03-28T09:16:15.355Z,99341.88
2023-03-28T09:18:54.992Z,99330.50
2023-03-28T09:21:46.336Z,99327.50
2023-03-28T09:24:37.854Z,99320.38
2023-03-28T09:27:31.356Z,99326.00
2023-03-28T09:30:08.384Z,99320.59
2023-03-28T09:32:41.235Z,99310.22
2023-03-28T09:35:20.202Z,99320.69
2023-03-28T09:37:55.932Z,99322.16
2023-03-28T09:40:26.083Z,99309.78
2023-03-28T09:43:30.284Z,99312.53
2023-03-28T09:46:04.775Z,99327.63
2023-03-28T09:48:36.990Z,99322.09
2023-03-28T09:51:06.353Z,99326.91
2023-03-28T09:53:37.069Z,99317.94
2023-03-28T09:56:32.315Z,99328.28
2023-03-28T09:59:02.602Z,99322.47
2023-03-28T10:01:50.965Z,99330.25
2023-03-28T10:04:32.847Z,99326.66
2023-03-28T10:07:11.417Z,99336.28
2023-03-28T10:09:55.948Z,99335.53
2023-03-28T10:12:32.987Z,99336.47
2023-03-28T10:15:00.109Z,99343.28
2023-03-28T10:17:30.305Z,99340.84
2023-03-28T10:20:02.109Z,99333.63
2023-03-28T10:22:33.626Z,99327.53
2023-03-28T10:25:03.565Z,99332.53
2023-03-28T10:27:33.764Z,99336.97
2023-03-28T10:30:13.955Z,99334.31
2023-03-28T10:32:41.601Z,99336.75
2023-03-28T10:35:21.156Z,99333.44
2023-03-28T10:37:48.897Z,99333.53
2023-03-28T10:40:18.349Z,99340.28
2023-03-28T10:42:46.537Z,99345.97
2023-03-28T10:45:37.065Z,99347.72
2023-03-28T10:48:22.719Z,99347.69
2023-03-28T10:50:51.634Z,99342.59
2023-03-28T10:53:41.826Z,99338.47
2023-03-28T10:56:38.725Z,99335.44
2023-03-28T10:59:14.021Z,99338.06
2023-03-28T11:01:49.772Z,99330.25
2023-03-28T11:04:25.466Z,99325.94
2023-03-28T11:07:24.076Z,99316.81
2023-03-28T11:10:08.815Z,99325.03
2023-03-28T11:13:16.983Z,99328.56
2023-03-28T11:15:58.164Z,99337.22
2023-03-28T11:18:49.776Z,99336.19
2023-03-28T11:21:57.925Z,99327.47
2023-03-28T11:24:37.197Z,99335.31
2023-03-28T11:27:19.042Z,99332.84
2023-03-28T11:29:56.195Z,99327.53
2023-03-28T11:32:43.818Z,99336.28
2023-03-28T11:35:13.663Z,99335.47
2023-03-28T11:37:44.520Z,99335.50
2023-03-28T11:40:28.879Z,99328.53
2023-03-28T11:42:57.628Z,99332.00
2023-03-28T11:45:41.993Z,99331.97
2023-03-28T11:48:32.262Z,99330.22
2023-03-28T11:51:17.303Z,99332.88
2023-03-28T11:53:51.761Z,99328.47
2023-03-28T11:56:28.447Z,99339.81
2023-03-28T11:59:11.489Z,99330.25
2023-03-28T12:01:45.038Z,99329.38
2023-03-28T12:04:19.855Z,99326.78
2023-03-28T12:07:22.494Z,99326.78
2023-03-28T12:10:06.273Z,99323.31
2023-03-28T12:12:38.318Z,99313.72
2023-03-28T12:15:25.204Z,99312.81
2023-03-28T12:17:59.387Z,99305.59
2023-03-28T12:20:46.583Z,99304.78
2023-03-28T12:23:22.722Z,99300.41
2023-03-28T12:26:23.568Z,99302.09
2023-03-28T12:28:54.151Z,99299.53
2023-03-28T12:31:39.589Z,99297.97
2023-03-28T12:34:38.524Z,99295.41
2023-03-28T12:37:22.644Z,99294.53
2023-03-28T12:40:09.230Z,99293.63
2023-03-28T12:42:36.867Z,99297.94
2023-03-28T12:45:14.748Z,99292.75
2023-03-28T12:47:47.265Z,99291.88
2023-03-28T12:50:27.917Z,99292.75
2023-03-28T12:52:56.714Z,99289.25
2023-03-28T12:55:26.782Z,99286.63
2023-03-28T12:58:11.361Z,99291.00
2023-03-28T13:01:16.350Z,99296.19
2023-03-28T13:04:01.956Z,99293.63
2023-03-28T13:06:42.757Z,99287.50
2023-03-28T13:09:28.149Z,99284.06
2023-03-28T13:12:22.943Z,99289.25
2023-03-28T13:15:03.309Z,99288.38
2023-03-28T13:17:33.075Z,99285.75
2023-03-28T13:20:14.852Z,99284.88
2023-03-28T13:22:58.587Z,99283.97
2023-03-28T13:25:34.339Z,99276.97
2023-03-28T13:28:12.682Z,99276.16
2023-03-28T13:30:44.160Z,99284.00
2023-03-28T13:33:28.572Z,99272.63
2023-03-28T13:35:58.501Z,99277.88
2023-03-28T13:38:28.077Z,99271.81
2023-03-28T13:40:59.738Z,99270.94
2023-03-28T13:43:41.875Z,99268.31
2023-03-28T13:46:22.390Z,99263.03
2023-03-28T13:49:06.893Z,99251.75
2023-03-28T13:51:53.710Z,99261.34
2023-03-28T13:54:21.587Z,99275.31
2023-03-28T13:56:49.950Z,99259.63
2023-03-28T13:59:19.050Z,99264.81
2023-03-28T14:01:50.596Z,99253.44
2023-03-28T14:04:21.376Z,99254.25
2023-03-28T14:06:49.435Z,99253.34
2023-03-28T14:09:19.905Z,99243.81
2023-03-28T14:11:48.487Z,99236.91
2023-03-28T14:14:24.269Z,99237.75
2023-03-28T14:16:52.439Z,99233.44
2023-03-28T14:19:22.704Z,99233.44
2023-03-28T14:21:49.501Z,99224.72
2023-03-28T14:24:23.923Z,99224.72
2023-03-28T14:26:51.853Z,99220.38
2023-03-28T14:29:19.862Z,99216.88
2023-03-28T14:31:48.692Z,99216.88
2023-03-28T14:34:26.179Z,99212.50
2023-03-28T14:36:58.742Z,99209.88
2023-03-28T14:39:27.978Z,99204.66
2023-03-28T14:41:56.734Z,99199.41
2023-03-28T14:44:24.490Z,99206.31
2023-03-28T14:46:52.640Z,99207.13
2023-03-28T14:49:25.401Z,99195.75
2023-03-28T14:52:00.709Z,99197.59
2023-03-28T14:54:39.009Z,99191.47
2023-03-28T14:57:06.672Z,99196.69
2023-03-28T14:59:45.791Z,99190.53
2023-03-28T15:02:28.514Z,99186.16
2023-03-28T15:05:09.747Z,99189.69
2023-03-28T15:07:37.761Z,99186.22
2023-03-28T15:10:09.150Z,99185.44
2023-03-28T15:12:46.055Z,99172.28
2023-03-28T15:15:22.193Z,99170.53
2023-03-28T15:17:51.667Z,99162.72
2023-03-28T15:20:24.114Z,99164.47
2023-03-28T15:22:56.483Z,99169.69
2023-03-28T15:25:25.055Z,99165.31
2023-03-28T15:27:57.006Z,99162.69
2023-03-28T15:30:24.752Z,99159.19
2023-03-28T15:32:53.406Z,99157.47
2023-03-28T15:35:31.722Z,99161.91
2023-03-28T15:38:18.916Z,99148.81
2023-03-28T15:40:48.591Z,99147.94
2023-03-28T15:43:56.942Z,99144.47
2023-03-28T15:46:33.381Z,99145.38
2023-03-28T15:49:02.930Z,99142.72
2023-03-28T15:51:31.149Z,99139.22
2023-03-28T15:54:01.132Z,99143.59
2023-03-28T15:56:31.717Z,99139.25
2023-03-28T15:59:04.252Z,99144.50
2023-03-28T16:01:33.014Z,99142.75
2023-03-28T16:04:23.632Z,99141.84
2023-03-28T16:06:55.591Z,99130.56
2023-03-28T16:09:24.710Z,99129.66
2023-03-28T16:12:00.753Z,99138.41
2023-03-28T16:14:27.724Z,99134.06
2023-03-28T16:16:55.642Z,99133.16
2023-03-28T16:19:28.058Z,99134.03
2023-03-28T16:21:54.796Z,99127.97
2023-03-28T16:24:21.758Z,99121.00
2023-03-28T16:26:48.766Z,99124.47
2023-03-28T16:29:15.906Z,99114.00
2023-03-28T16:31:43.482Z,99121.88
2023-03-28T16:34:10.502Z,99118.38
2023-03-28T16:36:38.236Z,99108.78
2023-03-28T16:39:06.358Z,99104.44
2023-03-28T16:41:32.829Z,99107.03
2023-03-28T16:43:59.544Z,99108.78
2023-03-28T16:46:26.425Z,99102.69
2023-03-28T16:48:53.028Z,99101.81
2023-03-28T16:51:19.619Z,99105.28
2023-03-28T16:53:46.469Z,99107.03
2023-03-28T16:56:15.132Z,99103.53
2023-03-28T16:58:42.885Z,99100.03
2023-03-28T17:01:19.276Z,99088.72
2023-03-28T17:03:47.512Z,99085.22
2023-03-28T17:06:16.436Z,99085.22
2023-03-28T17:08:44.525Z,99089.56
2023-03-28T17:11:12.696Z,99077.34
2023-03-28T17:13:40.509Z,99072.13
2023-03-28T17:16:08.708Z,99071.28
2023-03-28T17:18:36.077Z,99073.84
2023-03-28T17:21:11.980Z,99072.09
2023-03-28T17:23:40.340Z,99076.44
2023-03-28T17:26:08.814Z,99075.53
2023-03-28T17:28:39.228Z,99078.06
2023-03-28T17:31:12.969Z,99079.78
2023-03-28T17:33:40.414Z,99068.41
2023-03-28T17:36:27.505Z,99065.75
2023-03-28T17:38:56.849Z,99081.38
2023-03-28T17:41:25.032Z,99078.66
2023-03-28T17:43:53.471Z,99084.69
2023-03-28T17:46:21.631Z,99077.59
2023-03-28T17:48:49.150Z,99084.31
2023-03-28T17:51:16.136Z,99085.06
2023-03-28T17:53:44.729Z,99080.63
2023-03-28T17:56:11.801Z,99081.41
2023-03-28T17:58:38.670Z,99080.41
2023-03-28T18:01:09.918Z,99078.59
2023-03-28T18:03:37.524Z,99078.47
2023-03-28T18:06:04.636Z,99074.97
2023-03-28T18:08:31.641Z,99068.00
2023-03-28T18:11:02.826Z,99067.09
2023-03-28T18:13:29.458Z,99069.53
2023-03-28T18:15:56.096Z,99064.34
2023-03-28T18:18:22.820Z,99064.34
2023-03-28T18:20:51.113Z,99062.69
2023-03-28T18:23:17.803Z,99066.25
2023-03-28T18:25:44.597Z,99059.41
2023-03-28T18:28:11.240Z,99062.88
2023-03-28T18:30:39.429Z,99061.22
2023-03-28T18:33:06.461Z,99066.47
2023-03-28T18:35:33.254Z,99051.81
2023-03-28T18:37:59.920Z,99057.03
2023-03-28T18:40:26.548Z,99050.88
2023-03-28T18:42:53.490Z,99042.13
2023-03-28T18:45:20.162Z,99044.56
2023-03-28T18:47:46.921Z,99027.22
2023-03-28T18:50:15.227Z,99028.97
2023-03-28T18:52:43.141Z,99028.16
2023-03-28T18:55:12.179Z,99031.66
2023-03-28T18:57:38.830Z,99020.38
2023-03-28T19:00:17.717Z,99028.19
2023-03-28T19:02:45.970Z,99026.50
2023-03-28T19:05:13.917Z,99033.56
2023-03-28T19:07:40.953Z,99029.25
2023-03-28T19:10:08.472Z,99031.88
2023-03-28T19:12:36.509Z,99026.75
2023-03-28T19:15:04.756Z,99032.69
2023-03-28T19:17:34.875Z,99031.94
2023-03-28T19:20:07.446Z,99022.41
2023-03-28T19:22:35.200Z,99018.06
2023-03-28T19:25:02.082Z,99014.59
2023-03-28T19:27:28.722Z,99018.09
2023-03-28T19:29:55.580Z,99013.81
2023-03-28T19:32:22.302Z,99014.66
2023-03-28T19:34:49.191Z,99013.00
2023-03-28T19:37:15.756Z,99012.13
2023-03-28T19:39:42.539Z,99005.13
2023-03-28T19:42:09.303Z,99005.19
2023-03-28T19:44:35.988Z,99000.84
2023-03-28T19:47:03.061Z,98998.19
2023-03-28T19:49:29.672Z,98995.66
2023-03-28T19:51:56.620Z,98999.91
2023-03-28T19:54:23.427Z,98996.50
2023-03-28T19:56:50.103Z,98993.03
2023-03-28T19:59:16.835Z,98988.69
2023-03-28T20:01:43.456Z,98982.63
2023-03-28T20:04:10.905Z,98981.75
2023-03-28T20:06:37.658Z,98970.53
2023-03-28T20:09:04.319Z,98973.03
2023-03-28T20:11:31.069Z,98966.13
2023-03-28T20:13:57.814Z,98961.81
2023-03-28T20:16:24.467Z,98952.28
2023-03-28T20:18:51.033Z,98960.06
2023-03-28T20:21:17.777Z,98962.59
2023-03-28T20:23:44.451Z,98973.00
2023-03-28T20:26:14.395Z,98966.94
2023-03-28T20:28:41.918Z,98964.34
2023-03-28T20:31:12.862Z,98957.50
2023-03-28T20:33:40.890Z,98953.94
2023-03-28T20:36:08.292Z,98950.44
2023-03-28T20:38:34.968Z,98943.47
2023-03-28T20:41:01.930Z,98941.78
2023-03-28T20:43:29.730Z,98938.28
2023-03-28T20:45:58.188Z,98931.25
2023-03-28T20:48:34.587Z,98936.44
2023-03-28T20:51:17.656Z,98930.31
2023-03-28T20:53:52.038Z,98924.31
2023-03-28T20:56:20.054Z,98923.34
2023-03-28T20:58:46.977Z,98916.38
2023-03-28T21:01:17.644Z,98924.13
2023-03-28T21:03:51.883Z,98925.84
2023-03-28T21:06:21.529Z,98911.97
2023-03-28T21:08:50.308Z,98918.03
2023-03-28T21:11:22.662Z,98914.50
2023-03-28T21:13:50.514Z,98913.63
2023-03-28T21:16:17.591Z,98906.69
2023-03-28T21:18:45.119Z,98913.63
2023-03-28T21:21:13.375Z,98907.50
2023-03-28T21:23:40.788Z,98908.28
2023-03-28T21:26:09.567Z,98905.66
2023-03-28T21:28:36.824Z,98898.66
2023-03-28T21:31:08.002Z,98901.28
2023-03-28T21:33:36.668Z,98894.41
2023-03-28T21:36:06.739Z,98884.78
2023-03-28T21:38:33.983Z,98888.34
2023-03-28T21:41:00.842Z,98880.47
2023-03-28T21:43:27.511Z,98885.66
2023-03-28T21:45:54.462Z,98883.88
2023-03-28T21:48:21.378Z,98878.66
2023-03-28T21:50:59.139Z,98880.47
2023-03-28T21:53:29.377Z,98876.03
2023-03-28T21:55:56.928Z,98875.13
2023-03-28T21:58:24.108Z,98876.00
2023-03-28T22:00:51.069Z,98874.25
2023-03-28T22:03:18.153Z,98863.94
2023-03-28T22:05:45.229Z,98875.28
2023-03-28T22:08:13.624Z,98877.81
2023-03-28T22:10:48.586Z,98868.34
2023-03-28T22:13:15.583Z,98889.06
2023-03-28T22:15:42.441Z,98878.66
2023-03-28T22:18:09.584Z,98875.19
2023-03-28T22:20:38.445Z,98874.31
2023-03-28T22:23:06.325Z,98872.59
2023-03-28T22:25:36.118Z,98865.72
2023-03-28T22:28:04.966Z,98872.66
2023-03-28T22:30:33.250Z,98863.06
2023-03-28T22:33:00.109Z,98867.38
2023-03-28T22:35:26.810Z,98863.88
2023-03-28T22:37:53.469Z,98868.09
2023-03-28T22:40:20.257Z,98864.72
2023-03-28T22:42:47.066Z,98863.84
2023-03-28T22:45:14.245Z,98870.00
2023-03-28T22:47:40.982Z,98862.09
2023-03-28T22:50:12.983Z,98866.44
2023-03-28T22:52:42.131Z,98860.59
2023-03-28T22:55:13.602Z,98855.47
2023-03-28T22:57:44.197Z,98850.34
2023-03-28T23:00:13.297Z,98849.59
2023-03-28T23:02:40.466Z,98847.91
2023-03-28T23:05:08.229Z,98845.28
2023-03-28T23:07:36.670Z,98845.34
2023-03-28T23:10:07.812Z,98837.53
2023-03-28T23:12:34.575Z,98834.94
2023-03-28T23:15:01.175Z,98834.25
2023-03-28T23:17:28.529Z,98827.34
2023-03-28T23:19:55.604Z,98822.16
2023-03-28T23:22:22.457Z,98825.63
2023-03-28T23:24:51.679Z,98822.16
2023-03-28T23:27:19.601Z,98818.66
2023-03-28T23:29:46.267Z,98817.81
2023-03-28T23:32:12.947Z,98811.75
2023-03-28T23:34:40.460Z,98812.59
2023-03-28T23:37:07.227Z,98800.41
2023-03-28T23:39:33.931Z,98798.75
2023-03-28T23:42:00.650Z,98798.78
2023-03-28T23:44:28.047Z,98790.97
2023-03-28T23:46:56.444Z,98788.41
2023-03-28T23:49:23.970Z,98794.50
2023-03-28T23:51:50.941Z,98792.78
2023-03-28T23:54:18.718Z,98787.53
2023-03-28T23:56:46.151Z,98778.88
2023-03-28T23:59:12.990Z,98789.31
